createdAt,value
2022-08-28T00:06:39.585Z,21.44
2022-08-28T00:11:30.516Z,21.44
2022-08-28T00:26:44.899Z,21.31
2022-08-28T00:31:35.777Z,21.25
2022-08-28T00:36:46.234Z,21.31
2022-08-28T00:46:52.096Z,21.25
2022-08-28T00:51:42.466Z,21.31
2022-08-28T01:06:46.296Z,21.12
2022-08-28T01:11:47.289Z,21.12
2022-08-28T01:16:42.446Z,21.06
2022-08-28T01:21:56.871Z,21.06
2022-08-28T01:32:07.976Z,20.94
2022-08-28T01:43:03.693Z,20.87
2022-08-28T01:51:47.497Z,20.81
2022-08-28T01:56:37.050Z,20.75
2022-08-28T02:01:42.739Z,20.81
2022-08-28T02:06:48.870Z,20.75
2022-08-28T02:11:45.427Z,20.69
2022-08-28T02:16:50.205Z,20.69
2022-08-28T02:21:46.667Z,20.62
2022-08-28T02:26:51.777Z,20.62
2022-08-28T02:31:52.252Z,20.56
2022-08-28T02:36:52.975Z,20.56
2022-08-28T02:51:58.699Z,20.50
2022-08-28T02:57:03.286Z,20.50
2022-08-28T03:12:17.653Z,20.44
2022-08-28T03:17:30.024Z,20.44
2022-08-28T03:21:33.688Z,20.44
2022-08-28T03:26:34.451Z,20.44
2022-08-28T03:46:44.053Z,20.37
2022-08-28T03:56:46.459Z,20.37
2022-08-28T04:01:47.353Z,20.37
2022-08-28T04:07:48.838Z,20.37
2022-08-28T04:11:34.917Z,20.31
2022-08-28T04:26:39.204Z,20.31
2022-08-28T04:31:38.287Z,20.25
2022-08-28T04:36:45.287Z,20.25
2022-08-28T04:41:45.955Z,20.19
2022-08-28T04:46:48.246Z,20.19
2022-08-28T04:51:33.326Z,20.19
2022-08-28T04:56:27.787Z,20.12
2022-08-28T05:06:34.206Z,20.12
2022-08-28T05:11:48.690Z,20.06
2022-08-28T05:16:43.706Z,20.06
2022-08-28T05:36:42.586Z,20.00
2022-08-28T05:46:42.205Z,19.94
2022-08-28T05:51:38.621Z,19.94
2022-08-28T05:56:45.218Z,20.00
2022-08-28T06:01:44.501Z,19.94
2022-08-28T06:06:34.104Z,19.94
2022-08-28T06:11:33.787Z,19.94
2022-08-28T06:16:29.488Z,19.94
2022-08-28T06:21:30.264Z,19.87
2022-08-28T06:26:36.018Z,19.87
2022-08-28T06:36:43.776Z,19.87
2022-08-28T06:41:43.518Z,19.81
2022-08-28T06:46:42.614Z,19.75
2022-08-28T06:51:42.216Z,19.81
2022-08-28T06:56:44.397Z,19.75
2022-08-28T07:01:42.135Z,19.69
2022-08-28T07:06:44.089Z,19.56
2022-08-28T07:11:44.938Z,19.56
2022-08-28T07:16:45.415Z,19.56
2022-08-28T07:21:41.234Z,19.56
2022-08-28T07:26:46.850Z,19.56
2022-08-28T07:31:48.412Z,19.56
2022-08-28T07:36:38.596Z,19.50
2022-08-28T07:41:38.202Z,19.50
2022-08-28T07:46:44.218Z,19.50
2022-08-28T07:51:35.553Z,19.50
2022-08-28T07:56:35.162Z,19.50
2022-08-28T08:01:39.188Z,19.44
2022-08-28T08:11:38.308Z,19.50
2022-08-28T08:16:38.013Z,19.50
2022-08-28T08:26:40.465Z,19.56
2022-08-28T08:31:50.833Z,19.56
2022-08-28T08:36:45.161Z,19.56
2022-08-28T08:41:45.917Z,19.62
2022-08-28T08:46:39.390Z,19.62
2022-08-28T08:51:40.137Z,19.62
2022-08-28T09:01:46.628Z,19.62
2022-08-28T09:06:48.484Z,19.62
2022-08-28T09:11:50.331Z,19.56
2022-08-28T09:16:48.286Z,19.62
2022-08-28T09:21:44.620Z,19.62
2022-08-28T09:26:49.835Z,19.62
2022-08-28T09:31:50.293Z,19.62
2022-08-28T09:36:46.060Z,19.69
2022-08-28T09:41:51.699Z,19.69
2022-08-28T09:46:47.504Z,19.81
2022-08-28T09:51:52.889Z,19.81
2022-08-28T09:56:51.488Z,19.94
2022-08-28T10:01:57.071Z,20.00
2022-08-28T10:06:57.663Z,19.87
2022-08-28T10:16:44.386Z,18.94
2022-08-28T10:21:44.228Z,20.00
2022-08-28T10:26:49.811Z,20.81
2022-08-28T10:31:45.607Z,21.37
2022-08-28T10:36:51.162Z,21.87
2022-08-28T10:41:51.901Z,22.19
2022-08-28T10:46:52.520Z,22.44
2022-08-28T10:51:48.693Z,22.62
2022-08-28T10:56:56.211Z,22.81
2022-08-28T11:01:54.498Z,22.87
2022-08-28T11:06:55.096Z,22.94
2022-08-28T11:12:01.931Z,23.00
2022-08-28T11:16:59.640Z,23.06
2022-08-28T11:27:00.359Z,23.06
2022-08-28T11:32:00.943Z,23.12
2022-08-28T11:36:56.736Z,23.19
2022-08-28T11:41:57.318Z,23.19
2022-08-28T11:46:57.961Z,23.19
2022-08-28T11:52:03.484Z,23.19
2022-08-28T11:56:59.323Z,23.19
2022-08-28T12:02:04.902Z,23.19
2022-08-28T12:07:00.522Z,23.19
2022-08-28T12:12:05.979Z,23.19
2022-08-28T12:17:06.749Z,23.19
2022-08-28T12:22:02.535Z,23.19
2022-08-28T12:27:08.107Z,23.19
2022-08-28T12:32:03.870Z,23.19
2022-08-28T12:37:09.422Z,23.25
2022-08-28T12:47:10.724Z,23.25
2022-08-28T12:52:06.427Z,23.25
2022-08-28T12:57:07.204Z,23.25
2022-08-28T13:02:17.835Z,23.25
2022-08-28T13:07:08.484Z,23.25
2022-08-28T13:12:14.105Z,23.31
2022-08-28T13:22:15.101Z,23.31
2022-08-28T13:27:11.075Z,23.37
2022-08-28T13:32:16.820Z,23.44
2022-08-28T13:37:20.432Z,23.50
2022-08-28T13:42:15.747Z,23.56
